Archival Weather

Yakutsk

Yakutsk, Russia (UEEE)

Report from: Monday, February 6, 2023 7:30 PM JST
Current time: Friday, April 19, 2024 5:55 PM JST

Current weather – Weather history – Daily summaries
Weather forecast

Present weatherFog
Temperature-42.0°C (-43.6°F)
Dew point-46.0°C (-50.8°F)
Winds Calm
Visibility820.2 ft. (250 m)
Altimeter30.30 in.Hg (1026 mB)
Precip. events QF 9:40 PM
Relative humidity65 %
Density altitude-8,159 ft. (-2,487 m)
Remarks No significant changes expected in the next two hours
Flight conditions Low Instrument Meteorological Conditions
Raw dataUEEE 061030Z 00000MPS 0250 0200NE R23L/0600N FG NSC M42/M46 Q1026 R23L/490150 NOSIG RMK QFE760
An error has occurred. This application may no longer respond until reloaded. Reload 🗙